Time;durP1;ratioP1;P1;durP2;ratioP2;P2;SDS_P1;SDS_P2;PMS_P1;PMS_P2;Temp;Humidity;BMP_temperature;BMP_pressure;BME280_temperature;BME280_humidity;BME280_pressure;Samples;Min_cycle;Max_cycle;Signal;HPM_P1;HPM_P2
2021/01/23 00:00:00;;;;;;;31.97;20.33;;;;;;;2.46;83.77;98860.45;103316;1102;86406;-66
2021/01/23 00:02:06;;;;;;;29.73;20.13;;;;;;;2.39;83.77;98859.47;103325;1102;78438;-68
2021/01/23 00:04:12;;;;;;;31.10;20.00;;;;;;;2.33;83.90;98862.86;103307;1102;64886;-78
2021/01/23 00:06:18;;;;;;;32.47;20.20;;;;;;;2.34;83.91;98859.17;103277;1102;83619;-66
2021/01/23 00:08:23;;;;;;;30.80;20.13;;;;;;;2.33;84.07;98865.53;103301;1102;71854;-71
2021/01/23 00:10:30;;;;;;;30.83;19.07;;;;;;;2.31;84.39;98872.84;103283;1102;85290;-68
2021/01/23 00:12:35;;;;;;;27.87;18.10;;;;;;;2.36;84.06;98865.98;103296;1102;78984;-69
2021/01/23 00:14:41;;;;;;;32.23;19.27;;;;;;;2.44;84.29;98866.96;103325;1105;65026;-62
2021/01/23 00:16:54;;;;;;;32.17;18.73;;;;;;;2.43;84.45;98874.13;103334;1105;82490;-65
2021/01/23 00:19:02;;;;;;;25.73;17.67;;;;;;;2.47;84.46;98871.95;103318;1106;74712;-76
2021/01/23 00:21:08;;;;;;;30.50;19.60;;;;;;;2.47;84.34;98872.78;103329;1105;83720;-68
2021/01/23 00:23:14;;;;;;;30.27;19.93;;;;;;;2.36;84.22;98873.98;103271;1105;79465;-61
2021/01/23 00:25:20;;;;;;;27.15;18.05;;;;;;;2.29;84.03;98872.19;103298;1105;64982;-59
2021/01/23 00:27:26;;;;;;;29.00;17.80;;;;;;;2.22;84.48;98868.58;103302;1103;82775;-58
2021/01/23 00:29:31;;;;;;;28.67;18.53;;;;;;;2.16;84.15;98869.27;103279;1106;72007;-60
2021/01/23 00:31:38;;;;;;;34.40;24.30;;;;;;;2.12;84.35;98873.27;103348;1102;86599;-59
2021/01/23 00:33:44;;;;;;;29.47;18.80;;;;;;;2.10;84.19;98883.27;103307;1102;78266;-59
2021/01/23 00:35:50;;;;;;;27.47;18.23;;;;;;;1.99;84.46;98886.30;103284;1102;64847;-59
2021/01/23 00:37:56;;;;;;;26.50;16.87;;;;;;;2.02;84.94;98889.46;103309;1102;83534;-57
2021/01/23 00:40:02;;;;;;;28.30;18.17;;;;;;;2.07;84.84;98896.92;103294;1102;73593;-68
2021/01/23 00:42:09;;;;;;;29.40;18.90;;;;;;;2.09;84.89;98894.91;103309;1102;85872;-72
2021/01/23 00:44:14;;;;;;;31.90;19.63;;;;;;;2.15;84.58;98888.91;103304;1102;78106;-69
2021/01/23 00:46:21;;;;;;;34.33;20.17;;;;;;;2.23;85.19;98891.53;103325;1102;64812;-70
2021/01/23 00:48:28;;;;;;;31.37;19.37;;;;;;;2.31;84.79;98883.50;103295;1102;82859;-72
2021/01/23 00:50:33;;;;;;;31.37;19.10;;;;;;;2.37;85.15;98882.80;103305;1105;71583;-71
2021/01/23 00:52:40;;;;;;;27.87;17.60;;;;;;;2.31;84.97;98889.66;103304;1102;85892;-69
2021/01/23 00:54:46;;;;;;;30.03;18.87;;;;;;;2.36;84.72;98887.30;103257;1102;77977;-60
2021/01/23 00:56:52;;;;;;;33.43;19.83;;;;;;;2.34;84.99;98886.66;103322;1102;64834;-58
2021/01/23 00:58:58;;;;;;;29.27;18.43;;;;;;;2.38;85.01;98895.97;103267;1102;83447;-57
2021/01/23 01:01:05;;;;;;;31.47;17.37;;;;;;;2.35;84.90;98884.83;103277;1102;73578;-70
2021/01/23 01:03:11;;;;;;;29.27;17.77;;;;;;;2.41;85.02;98888.63;103307;1102;85429;-72
2021/01/23 01:05:17;;;;;;;28.30;17.73;;;;;;;2.45;85.56;98888.09;103258;1102;79555;-73
2021/01/23 01:07:23;;;;;;;29.57;17.67;;;;;;;2.44;85.65;98878.45;103299;1102;65054;-75
2021/01/23 01:09:29;;;;;;;26.47;16.53;;;;;;;2.52;85.21;98896.23;103293;1102;84448;-77
2021/01/23 01:11:35;;;;;;;28.47;17.73;;;;;;;2.57;85.27;98884.04;103312;1102;72108;-76
2021/01/23 01:13:40;;;;;;;28.67;17.77;;;;;;;2.63;85.65;98894.01;103289;1102;85055;-76
2021/01/23 01:15:46;;;;;;;30.20;17.87;;;;;;;2.69;85.68;98887.14;103312;1102;78690;-60
2021/01/23 01:17:51;;;;;;;26.23;16.50;;;;;;;2.77;85.74;98898.59;103287;1102;64838;-60
2021/01/23 01:19:57;;;;;;;28.27;15.93;;;;;;;2.79;85.46;98901.06;103315;1102;81938;-78
2021/01/23 01:22:03;;;;;;;25.20;16.97;;;;;;;2.80;85.51;98894.73;103323;1102;71995;-78
2021/01/23 01:24:11;;;;;;;31.93;19.63;;;;;;;2.78;85.33;98889.56;103305;1102;86418;-80
2021/01/23 01:26:17;;;;;;;29.37;16.83;;;;;;;2.78;85.78;98902.06;103346;1102;79031;-79
2021/01/23 01:28:22;;;;;;;30.30;17.60;;;;;;;2.77;85.76;98901.25;103300;1103;65208;-78
2021/01/23 01:30:28;;;;;;;30.23;18.50;;;;;;;2.74;85.39;98906.94;103337;1102;82434;-77
2021/01/23 01:32:34;;;;;;;28.67;17.60;;;;;;;2.74;85.24;98901.61;103327;1102;70861;-76
2021/01/23 01:34:40;;;;;;;26.70;17.07;;;;;;;2.74;85.30;98909.61;103311;1102;84743;-79
2021/01/23 01:36:46;;;;;;;29.90;17.95;;;;;;;2.72;85.39;98905.45;103313;1102;79677;-79
2021/01/23 01:38:52;;;;;;;29.93;18.17;;;;;;;2.73;85.82;98907.09;103297;1102;64774;-74
2021/01/23 01:40:58;;;;;;;25.20;16.80;;;;;;;2.69;85.46;98911.14;103317;1102;83674;-63
2021/01/23 01:43:03;;;;;;;28.30;17.47;;;;;;;2.66;85.70;98917.66;103169;1102;72233;-65
2021/01/23 01:45:12;;;;;;;28.30;17.33;;;;;;;2.53;85.21;98917.37;104002;1102;85793;-62
2021/01/23 01:47:20;;;;;;;24.47;17.83;;;;;;;2.50;85.75;98925.70;103259;1102;78378;-63
2021/01/23 01:49:25;;;;;;;29.70;17.83;;;;;;;2.62;85.91;98929.66;103269;1102;64825;-65
2021/01/23 01:51:32;;;;;;;29.85;19.05;;;;;;;2.61;85.41;98933.31;103308;1102;83798;-61
2021/01/23 01:53:41;;;;;;;29.60;18.67;;;;;;;2.57;85.47;98940.02;103309;1102;72259;-62
2021/01/23 01:55:49;;;;;;;32.73;19.20;;;;;;;2.58;85.49;98933.69;103278;1102;86083;-73
2021/01/23 01:57:54;;;;;;;29.87;20.53;;;;;;;2.63;85.69;98936.66;104190;1102;78703;-66
2021/01/23 02:00:00;;;;;;;29.80;19.87;;;;;;;2.67;85.83;98931.78;103324;1102;64670;-74
2021/01/23 02:02:23;;;;;;;30.63;18.43;;;;;;;2.66;85.30;98935.48;103326;1102;84101;-75
2021/01/23 02:04:38;;;;;;;29.23;18.57;;;;;;;2.59;85.75;98932.66;103355;1102;72156;-65
2021/01/23 02:07:06;;;;;;;35.67;19.93;;;;;;;2.62;85.39;98937.66;103318;1104;83905;-61
2021/01/23 02:09:25;;;;;;;34.70;20.30;;;;;;;2.68;85.96;98936.13;103281;1102;78937;-67
2021/01/23 02:11:39;;;;;;;32.63;20.27;;;;;;;2.72;85.87;98929.45;103335;1102;64939;-59
2021/01/23 02:13:52;;;;;;;30.27;20.37;;;;;;;2.72;85.84;98935.59;103316;1102;83021;-59
2021/01/23 02:16:05;;;;;;;31.20;20.60;;;;;;;2.69;85.55;98943.94;103330;1102;71753;-75
2021/01/23 02:18:15;;;;;;;32.75;20.70;;;;;;;2.65;85.43;98942.64;103317;1102;84897;-68
2021/01/23 02:20:46;;;;;;;33.57;21.23;;;;;;;2.69;85.54;98938.60;103256;1102;77612;-71
2021/01/23 02:23:15;;;;;;;32.60;21.50;;;;;;;2.70;85.96;98940.27;103326;1103;64815;-64
2021/01/23 02:25:24;;;;;;;35.63;20.67;;;;;;;2.62;85.73;98939.48;103244;1102;84028;-70
2021/01/23 02:27:56;;;;;;;34.30;21.75;;;;;;;2.62;86.02;98939.48;103290;1102;72241;-69
2021/01/23 02:30:18;;;;;;;34.40;21.90;;;;;;;2.64;85.51;98943.63;103308;1102;85244;-71
2021/01/23 02:32:27;;;;;;;33.93;21.13;;;;;;;2.62;85.51;98945.65;103288;1102;77858;-71
2021/01/23 02:34:35;;;;;;;31.23;20.63;;;;;;;2.60;85.52;98946.83;103293;1103;64828;-76
2021/01/23 02:36:43;;;;;;;32.85;21.20;;;;;;;2.59;85.77;98958.48;103244;1102;83622;-64
2021/01/23 02:38:51;;;;;;;33.67;21.67;;;;;;;2.58;85.34;98952.35;103371;1102;71370;-78
2021/01/23 02:40:58;;;;;;;34.93;22.37;;;;;;;2.56;85.69;98953.50;103293;1102;84531;-65
2021/01/23 02:43:06;;;;;;;32.77;21.00;;;;;;;2.49;85.32;98958.72;103279;1105;78732;-62
2021/01/23 02:45:16;;;;;;;33.70;21.20;;;;;;;2.37;85.40;98952.09;103304;1105;64837;-61
2021/01/23 02:47:21;;;;;;;29.33;21.07;;;;;;;2.25;84.96;98956.95;103239;1102;84284;-61
2021/01/23 02:49:28;;;;;;;30.30;20.67;;;;;;;2.14;85.12;98951.19;103296;1103;71404;-63
2021/01/23 02:51:43;;;;;;;30.23;20.17;;;;;;;1.97;84.66;98947.73;103281;1102;84727;-62
2021/01/23 02:53:52;;;;;;;30.60;19.23;;;;;;;1.87;84.65;98957.72;103254;1105;79404;-61
2021/01/23 02:56:10;;;;;;;35.07;23.33;;;;;;;1.73;85.16;98961.10;103320;1102;64895;-76
2021/01/23 02:58:21;;;;;;;29.97;20.53;;;;;;;1.62;84.94;98964.91;103325;1102;83916;-76
2021/01/23 03:00:29;;;;;;;32.87;20.70;;;;;;;1.57;85.01;98956.61;103303;1102;71528;-76
2021/01/23 03:02:36;;;;;;;30.90;20.47;;;;;;;1.53;85.21;98975.74;103322;1102;85423;-76
2021/01/23 03:04:45;;;;;;;31.40;20.00;;;;;;;1.52;85.41;98982.05;103320;1102;78515;-61
2021/01/23 03:06:53;;;;;;;35.63;22.77;;;;;;;1.67;85.92;98972.41;103286;1102;64867;-62
2021/01/23 03:08:59;;;;;;;38.57;24.27;;;;;;;1.78;86.07;98970.24;103270;1102;84425;-62
2021/01/23 03:11:09;;;;;;;39.67;25.57;;;;;;;1.89;85.89;98974.38;103297;1102;71054;-78
2021/01/23 03:13:16;;;;;;;42.57;23.90;;;;;;;1.97;85.77;98976.19;103298;1102;85324;-76
2021/01/23 03:15:22;;;;;;;38.47;24.17;;;;;;;2.01;85.97;98977.50;103300;1102;78811;-76
2021/01/23 03:17:28;;;;;;;37.70;24.13;;;;;;;2.01;86.28;98977.50;103353;1102;64829;-76
2021/01/23 03:19:34;;;;;;;34.23;23.73;;;;;;;2.01;85.73;98974.84;103360;1102;83209;-60
2021/01/23 03:21:39;;;;;;;36.93;23.80;;;;;;;1.99;85.62;98968.86;103285;1102;72019;-60
2021/01/23 03:23:45;;;;;;;34.50;24.03;;;;;;;1.96;85.48;98971.86;103268;1102;86279;-61
2021/01/23 03:25:51;;;;;;;35.90;22.43;;;;;;;1.92;85.71;98967.89;103350;1102;77695;-77
2021/01/23 03:27:58;;;;;;;37.47;22.90;;;;;;;1.98;86.14;98969.88;103308;1102;64808;-74
2021/01/23 03:30:06;;;;;;;38.00;23.90;;;;;;;2.01;86.15;98961.52;103285;1102;84055;-77
2021/01/23 03:32:12;;;;;;;34.97;22.50;;;;;;;2.01;85.87;98956.20;103341;1102;72589;-76
2021/01/23 03:34:18;;;;;;;36.50;24.00;;;;;;;2.02;86.26;98952.54;103309;1102;85149;-76
2021/01/23 03:36:27;;;;;;;33.75;22.00;;;;;;;2.00;86.01;98954.55;103279;1102;78941;-62
2021/01/23 03:38:36;;;;;;;32.33;22.30;;;;;;;1.92;85.50;98958.07;103298;1102;64831;-60
2021/01/23 03:40:41;;;;;;;31.93;22.23;;;;;;;1.81;85.69;98958.42;103305;1102;83034;-76
2021/01/23 03:42:50;;;;;;;33.67;21.67;;;;;;;1.70;85.33;98959.58;103306;1102;72284;-76
2021/01/23 03:44:56;;;;;;;36.25;22.05;;;;;;;1.63;85.58;98965.75;103306;1102;85400;-63
2021/01/23 03:47:02;;;;;;;34.60;21.03;;;;;;;1.54;85.30;98959.59;103292;1102;78598;-62
2021/01/23 03:49:11;;;;;;;34.33;21.57;;;;;;;1.42;85.28;98952.97;103291;1102;64922;-63
2021/01/23 03:51:16;;;;;;;32.20;22.30;;;;;;;1.40;85.60;98957.60;103284;1102;83876;-64
2021/01/23 03:53:22;;;;;;;38.07;23.57;;;;;;;1.39;85.64;98961.28;103320;1102;72180;-64
2021/01/23 03:55:28;;;;;;;38.67;25.10;;;;;;;1.44;85.72;98953.62;103328;1102;84953;-60
2021/01/23 03:57:33;;;;;;;38.37;22.70;;;;;;;1.44;85.69;98953.62;103261;1102;79231;-81
2021/01/23 03:59:40;;;;;;;34.33;22.57;;;;;;;1.50;85.95;98947.64;103260;1102;64889;-74
2021/01/23 04:01:46;;;;;;;33.13;22.30;;;;;;;1.55;86.18;98941.80;103296;1102;84954;-73
2021/01/23 04:03:52;;;;;;;35.07;23.40;;;;;;;1.63;86.28;98931.98;103288;1102;71983;-75
2021/01/23 04:05:57;;;;;;;38.07;24.17;;;;;;;1.67;86.48;98933.33;103313;1102;86397;-73
2021/01/23 04:08:03;;;;;;;36.87;23.63;;;;;;;1.74;86.43;98933.47;103288;1102;78281;-74
2021/01/23 04:10:12;;;;;;;34.87;22.77;;;;;;;1.76;86.34;98934.95;103327;1102;64872;-74
2021/01/23 04:12:21;;;;;;;32.80;22.53;;;;;;;1.81;86.11;98930.97;103302;1102;83249;-74
2021/01/23 04:14:27;;;;;;;33.30;22.30;;;;;;;1.84;86.45;98930.62;103310;1102;73055;-65
2021/01/23 04:16:32;;;;;;;34.93;23.10;;;;;;;1.82;86.39;98925.45;103331;1102;85329;-75
2021/01/23 04:18:38;;;;;;;36.93;24.87;;;;;;;1.82;86.07;98933.44;103268;1102;78541;-73
2021/01/23 04:20:44;;;;;;;33.47;23.70;;;;;;;1.78;85.95;98926.81;103360;1102;64841;-73
2021/01/23 04:22:50;;;;;;;32.80;22.93;;;;;;;1.72;86.22;98923.00;103294;1102;83961;-72
2021/01/23 04:24:56;;;;;;;36.40;22.20;;;;;;;1.66;86.05;98921.00;103303;1102;71927;-60
2021/01/23 04:27:01;;;;;;;33.53;21.87;;;;;;;1.64;85.81;98914.19;103324;1102;85660;-61
2021/01/23 04:29:07;;;;;;;34.13;22.63;;;;;;;1.62;86.01;98908.22;103286;1102;79233;-61
2021/01/23 04:31:13;;;;;;;33.13;22.00;;;;;;;1.53;85.67;98914.55;103320;1102;64853;-74
2021/01/23 04:33:19;;;;;;;30.13;20.80;;;;;;;1.46;85.55;98903.73;103260;1102;84081;-74
2021/01/23 04:35:25;;;;;;;36.93;23.13;;;;;;;1.45;85.61;98893.27;103308;1103;71685;-61
2021/01/23 04:37:31;;;;;;;31.87;22.57;;;;;;;1.51;86.05;98881.95;103314;1102;84081;-61
2021/01/23 04:39:37;;;;;;;37.13;23.30;;;;;;;1.61;86.12;98909.20;103295;1102;78754;-74
2021/01/23 04:41:43;;;;;;;33.27;22.93;;;;;;;1.73;86.29;98911.33;103318;1102;64770;-75
2021/01/23 04:43:49;;;;;;;33.70;22.40;;;;;;;1.81;86.58;98899.02;103295;1102;82419;-73
2021/01/23 04:45:55;;;;;;;33.63;21.20;;;;;;;1.87;86.40;98901.81;103274;1102;73229;-74
2021/01/23 04:48:00;;;;;;;33.00;21.10;;;;;;;2.03;86.79;98895.63;103290;1102;84519;-74
2021/01/23 04:50:11;;;;;;;32.57;22.07;;;;;;;2.13;86.68;98886.42;103239;1102;78285;-60
2021/01/23 04:52:20;;;;;;;33.67;21.73;;;;;;;2.17;86.60;98871.73;103323;1102;64860;-61
2021/01/23 04:54:26;;;;;;;37.47;22.97;;;;;;;2.29;86.71;98870.36;103303;1102;83304;-69
2021/01/23 04:56:32;;;;;;;29.73;21.47;;;;;;;2.35;86.59;98879.50;103305;1102;73346;-62
2021/01/23 04:58:37;;;;;;;30.57;21.10;;;;;;;2.46;86.39;98875.61;103304;1102;86144;-60
2021/01/23 05:00:43;;;;;;;32.33;20.80;;;;;;;2.49;86.89;98881.42;103286;1102;79092;-75
2021/01/23 05:03:02;;;;;;;32.67;22.10;;;;;;;2.57;86.63;98881.37;103319;1102;64883;-74
2021/01/23 05:05:12;;;;;;;33.03;22.03;;;;;;;2.61;86.36;98880.00;103359;1102;82646;-73
2021/01/23 05:07:29;;;;;;;32.47;21.53;;;;;;;2.64;86.36;98882.32;103339;1102;72128;-73
2021/01/23 05:09:34;;;;;;;30.90;21.25;;;;;;;2.67;86.28;98859.80;103418;1102;84542;-63
2021/01/23 05:11:50;;;;;;;32.40;21.20;;;;;;;2.70;86.45;98862.12;103352;1102;79506;-61
2021/01/23 05:14:14;;;;;;;30.33;21.13;;;;;;;2.73;86.15;98857.27;103328;1102;65266;-63
2021/01/23 05:16:29;;;;;;;36.30;22.70;;;;;;;2.75;86.18;98841.09;103345;1102;83842;-61
2021/01/23 05:18:35;;;;;;;31.63;21.70;;;;;;;2.73;86.05;98845.78;103372;1102;72710;-61
2021/01/23 05:20:43;;;;;;;31.80;21.20;;;;;;;2.78;86.65;98849.56;103353;1102;85847;-60
2021/01/23 05:22:51;;;;;;;31.27;21.93;;;;;;;2.81;86.22;98835.88;103333;1102;79003;-61
2021/01/23 05:25:02;;;;;;;33.13;22.67;;;;;;;2.82;86.55;98826.89;103313;1105;64926;-74
2021/01/23 05:27:08;;;;;;;31.33;21.27;;;;;;;2.83;86.21;98833.86;103340;1103;82401;-74
2021/01/23 05:29:15;;;;;;;31.50;22.40;;;;;;;2.85;86.30;98831.03;103302;1103;73363;-73
2021/01/23 05:31:22;;;;;;;35.53;23.80;;;;;;;2.89;85.81;98829.65;103380;1102;83813;-74
2021/01/23 05:33:30;;;;;;;33.53;21.70;;;;;;;2.94;86.02;98821.94;103343;1102;79911;-74
2021/01/23 05:35:37;;;;;;;33.77;22.70;;;;;;;2.98;86.02;98821.42;103370;1102;64902;-61
2021/01/23 05:37:42;;;;;;;33.83;22.90;;;;;;;2.99;85.60;98824.92;103313;1102;81913;-61
2021/01/23 05:39:50;;;;;;;31.40;23.13;;;;;;;2.99;85.67;98836.39;103283;1102;73607;-73
2021/01/23 05:42:06;;;;;;;32.27;22.27;;;;;;;2.92;86.09;98835.47;103292;1102;86571;-75
2021/01/23 05:44:14;;;;;;;32.77;22.23;;;;;;;2.90;85.60;98837.48;103286;1102;78927;-75
2021/01/23 05:46:31;;;;;;;28.07;21.07;;;;;;;2.85;85.35;98836.37;103310;1102;64988;-62
2021/01/23 05:48:39;;;;;;;32.70;22.97;;;;;;;2.87;86.06;98832.51;103281;1102;83854;-62
2021/01/23 05:50:45;;;;;;;34.03;22.90;;;;;;;2.93;85.89;98834.47;103332;1102;72465;-61
2021/01/23 05:52:51;;;;;;;34.30;21.23;;;;;;;2.97;85.72;98837.59;103301;1102;86162;-62
2021/01/23 05:54:56;;;;;;;41.97;24.10;;;;;;;3.02;85.87;98853.91;103261;1102;78479;-73
2021/01/23 05:57:02;;;;;;;34.20;21.43;;;;;;;3.06;85.80;98867.69;103289;1102;64787;-75
2021/01/23 05:59:09;;;;;;;32.03;22.00;;;;;;;3.10;86.60;98853.00;103285;1102;83952;-73
2021/01/23 06:01:18;;;;;;;29.87;21.63;;;;;;;3.17;86.61;98837.92;103290;1102;74254;-61
2021/01/23 06:03:26;;;;;;;33.23;22.13;;;;;;;3.22;86.59;98835.53;103293;1102;86667;-61
2021/01/23 06:05:35;;;;;;;30.57;19.97;;;;;;;3.25;86.65;98829.84;103297;1102;79507;-61
2021/01/23 06:07:51;;;;;;;34.00;20.60;;;;;;;3.31;86.24;98834.45;103338;1102;65356;-60
2021/01/23 06:09:56;;;;;;;31.17;21.23;;;;;;;3.37;86.45;98833.73;103303;1102;84449;-73
2021/01/23 06:12:03;;;;;;;33.17;22.27;;;;;;;3.40;86.10;98844.05;103308;1102;72970;-74
2021/01/23 06:14:39;;;;;;;35.23;22.00;;;;;;;3.42;86.63;98850.86;103296;1102;84865;-73
2021/01/23 06:16:45;;;;;;;28.37;19.57;;;;;;;3.48;85.91;98868.00;103277;1102;77942;-60
2021/01/23 06:18:50;;;;;;;29.75;19.95;;;;;;;3.49;86.10;98869.63;103307;1102;65019;-62
2021/01/23 06:20:57;;;;;;;32.10;20.80;;;;;;;3.51;86.39;98860.46;103280;1102;84540;-61
2021/01/23 06:23:03;;;;;;;32.60;21.10;;;;;;;3.51;86.39;98868.47;103329;1102;72835;-59
2021/01/23 06:25:09;;;;;;;30.50;20.87;;;;;;;3.55;86.09;98859.07;103289;1102;85228;-73
2021/01/23 06:27:16;;;;;;;30.97;19.40;;;;;;;3.56;86.50;98849.22;103343;1102;78775;-74
2021/01/23 06:29:33;;;;;;;28.00;19.10;;;;;;;3.59;86.38;98864.88;103328;1102;64745;-75
2021/01/23 06:31:39;;;;;;;32.57;20.30;;;;;;;3.64;86.19;98856.31;103317;1102;82189;-62
2021/01/23 06:33:47;;;;;;;32.50;21.00;;;;;;;3.63;86.27;98858.15;103312;1102;72118;-61
2021/01/23 06:36:22;;;;;;;33.90;22.93;;;;;;;3.66;86.32;98859.63;103309;1102;86172;-72
2021/01/23 06:38:32;;;;;;;32.03;20.67;;;;;;;3.67;86.22;98853.28;103279;1102;78185;-72
2021/01/23 06:40:38;;;;;;;34.73;19.93;;;;;;;3.70;86.45;98851.08;103318;1102;65310;-74
2021/01/23 06:42:48;;;;;;;29.30;19.27;;;;;;;3.71;86.20;98842.04;103284;1102;84381;-74
2021/01/23 06:44:54;;;;;;;30.30;20.57;;;;;;;3.72;86.51;98833.02;103334;1102;71869;-61
2021/01/23 06:47:00;;;;;;;28.73;19.33;;;;;;;3.78;86.22;98824.28;103312;1102;84592;-61
2021/01/23 06:49:07;;;;;;;28.30;19.30;;;;;;;3.84;85.91;98826.22;103277;1102;79916;-63
2021/01/23 06:51:21;;;;;;;32.00;20.83;;;;;;;3.85;85.92;98821.69;103344;1102;64885;-60
2021/01/23 06:53:27;;;;;;;30.00;19.45;;;;;;;3.88;86.43;98814.14;103275;1101;82423;-59
2021/01/23 06:55:51;;;;;;;29.30;19.50;;;;;;;3.91;85.89;98811.09;103320;1102;71653;-74
2021/01/23 06:57:59;;;;;;;30.50;19.92;;;;;;;3.90;86.09;98806.76;103313;1102;85011;-74
2021/01/23 07:00:08;;;;;;;33.23;21.40;;;;;;;3.86;86.50;98808.16;103304;1102;78880;-60
2021/01/23 07:02:17;;;;;;;27.03;21.00;;;;;;;3.90;85.96;98803.28;103329;1102;64988;-61
2021/01/23 07:04:23;;;;;;;31.53;19.90;;;;;;;3.93;86.46;98803.72;103288;1102;83428;-62
2021/01/23 07:06:32;;;;;;;28.07;19.60;;;;;;;3.96;86.06;98811.36;103273;1106;72816;-75
2021/01/23 07:08:39;;;;;;;28.57;19.20;;;;;;;3.98;86.00;98805.85;103303;1102;85645;-75
2021/01/23 07:10:44;;;;;;;30.17;19.13;;;;;;;4.00;86.53;98798.47;103381;1102;77621;-74
2021/01/23 07:12:50;;;;;;;29.63;20.77;;;;;;;4.02;86.36;98791.92;103281;1102;64959;-75
2021/01/23 07:14:56;;;;;;;34.40;21.30;;;;;;;4.05;85.95;98799.57;103305;1102;84626;-74
2021/01/23 07:17:01;;;;;;;76.60;47.43;;;;;;;4.08;86.14;98798.36;103309;1102;71454;-74
2021/01/23 07:19:08;;;;;;;50.47;38.33;;;;;;;4.14;86.03;98795.78;103282;1102;86249;-75
2021/01/23 07:21:14;;;;;;;27.07;21.17;;;;;;;4.20;86.62;98793.38;103293;1102;79497;-61
2021/01/23 07:23:22;;;;;;;30.20;20.27;;;;;;;4.22;86.42;98797.52;103349;1102;65023;-61
2021/01/23 07:25:29;;;;;;;30.70;21.50;;;;;;;4.25;86.28;98799.81;103341;1102;83276;-73
2021/01/23 07:27:38;;;;;;;29.83;19.73;;;;;;;4.29;86.34;98795.73;103305;1102;72100;-74
2021/01/23 07:29:50;;;;;;;27.30;19.07;;;;;;;4.30;86.15;98799.23;103312;1102;86442;-61
2021/01/23 07:31:57;;;;;;;29.13;19.53;;;;;;;4.31;86.70;98798.23;103263;1102;80345;-60
2021/01/23 07:34:10;;;;;;;25.30;19.37;;;;;;;4.38;86.04;98809.81;103298;1102;64828;-61
2021/01/23 07:36:34;;;;;;;26.70;19.40;;;;;;;4.42;86.70;98789.72;103261;1102;84410;-61
2021/01/23 07:38:40;;;;;;;32.60;20.70;;;;;;;4.44;86.06;98793.02;103301;1102;71138;-61
2021/01/23 07:40:46;;;;;;;28.20;18.90;;;;;;;4.48;86.24;98786.26;103326;1102;84091;-75
2021/01/23 07:42:55;;;;;;;29.80;19.67;;;;;;;4.52;86.13;98780.36;103300;1102;80840;-73
2021/01/23 07:45:03;;;;;;;31.37;19.67;;;;;;;4.55;86.64;98763.11;103305;1102;63772;-61
2021/01/23 07:47:13;;;;;;;27.93;19.77;;;;;;;4.61;86.31;98754.33;103305;1102;83062;-62
2021/01/23 07:49:29;;;;;;;31.37;21.00;;;;;;;4.65;86.23;98767.11;103294;1102;72912;-59
2021/01/23 07:51:37;;;;;;;27.77;20.07;;;;;;;4.68;86.70;98760.55;103301;1102;86047;-61
2021/01/23 07:53:43;;;;;;;26.77;19.27;;;;;;;4.74;86.23;98757.11;103284;1102;78135;-60
2021/01/23 07:55:50;;;;;;;28.53;21.20;;;;;;;4.76;86.84;98736.34;103334;1102;64833;-61
2021/01/23 07:58:08;;;;;;;26.00;19.67;;;;;;;4.83;86.67;98731.89;103336;1103;83921;-62
2021/01/23 08:00:24;;;;;;;26.23;19.03;;;;;;;4.89;86.23;98735.64;103345;1102;70872;-61
2021/01/23 08:02:29;;;;;;;23.00;17.93;;;;;;;4.94;87.12;98736.72;103280;1102;86283;-61
2021/01/23 08:04:37;;;;;;;24.80;18.10;;;;;;;5.00;86.90;98738.59;103290;1102;79271;-73
2021/01/23 08:06:42;;;;;;;22.13;17.90;;;;;;;5.01;86.59;98737.58;103300;1102;65275;-74
2021/01/23 08:08:49;;;;;;;23.97;18.23;;;;;;;5.03;86.86;98732.85;103307;1102;83458;-73
2021/01/23 08:10:55;;;;;;;27.27;19.37;;;;;;;5.06;86.73;98726.28;103366;1102;71828;-61
2021/01/23 08:13:03;;;;;;;26.83;19.90;;;;;;;5.14;86.94;98728.81;103304;1102;85874;-61
2021/01/23 08:15:12;;;;;;;24.17;18.10;;;;;;;5.16;86.55;98738.33;103328;1102;77952;-61
2021/01/23 08:17:18;;;;;;;23.30;18.50;;;;;;;5.18;87.00;98727.41;103311;1102;64838;-62
2021/01/23 08:19:27;;;;;;;23.40;19.20;;;;;;;5.19;86.49;98737.91;103238;1102;84506;-68
2021/01/23 08:21:33;;;;;;;23.93;18.77;;;;;;;5.19;86.67;98729.88;103282;1102;73465;-62
2021/01/23 08:23:39;;;;;;;23.80;18.00;;;;;;;5.22;86.98;98726.81;103271;1102;86154;-62
2021/01/23 08:25:51;;;;;;;23.10;18.03;;;;;;;5.24;86.88;98724.79;103301;1102;79287;-75
2021/01/23 08:27:58;;;;;;;23.83;17.97;;;;;;;5.23;86.47;98714.26;103320;1102;64831;-75
2021/01/23 08:30:07;;;;;;;24.50;18.23;;;;;;;5.23;87.05;98711.58;103315;1102;83857;-61
2021/01/23 08:32:13;;;;;;;27.33;18.40;;;;;;;5.26;86.47;98709.34;103300;1102;71227;-61
2021/01/23 08:34:19;;;;;;;24.50;18.87;;;;;;;5.27;86.84;98716.34;103335;1102;85155;-59
2021/01/23 08:36:27;;;;;;;21.90;17.70;;;;;;;5.29;86.31;98716.98;103303;1102;80234;-75
2021/01/23 08:38:33;;;;;;;24.07;17.63;;;;;;;5.34;86.58;98703.83;103366;1102;64976;-75
2021/01/23 08:40:40;;;;;;;24.05;18.20;;;;;;;5.35;86.63;98705.50;103271;1102;84010;-76
2021/01/23 08:42:45;;;;;;;26.23;18.33;;;;;;;5.36;86.93;98704.45;103324;1102;71506;-77
2021/01/23 08:44:55;;;;;;;24.37;17.80;;;;;;;5.40;86.61;98707.57;103342;1106;86443;-74
2021/01/23 08:47:02;;;;;;;25.20;18.07;;;;;;;5.41;86.70;98693.17;103306;1102;78351;-77
2021/01/23 08:49:08;;;;;;;23.20;18.17;;;;;;;5.45;86.59;98691.73;103322;1102;63090;-77
2021/01/23 08:51:14;;;;;;;26.23;18.37;;;;;;;5.45;86.30;98690.90;103259;1102;82724;-60
2021/01/23 08:53:20;;;;;;;25.47;18.60;;;;;;;5.44;86.83;98683.91;103322;1103;73018;-61
2021/01/23 08:55:26;;;;;;;24.80;19.87;;;;;;;5.39;86.98;98676.45;103285;1102;86213;-62
2021/01/23 08:57:32;;;;;;;23.63;18.40;;;;;;;5.42;86.38;98686.77;103275;1102;78268;-62
2021/01/23 08:59:42;;;;;;;25.43;17.27;;;;;;;5.45;86.36;98690.90;103325;1102;64854;-62
2021/01/23 09:01:48;;;;;;;23.27;18.10;;;;;;;5.50;86.33;98699.99;103290;1105;83231;-62
2021/01/23 09:03:53;;;;;;;23.20;17.70;;;;;;;5.49;86.92;98690.33;103314;1102;72678;-61
2021/01/23 09:05:59;;;;;;;26.57;18.90;;;;;;;5.48;86.70;98704.73;103344;1102;85770;-76
2021/01/23 09:08:06;;;;;;;22.93;17.90;;;;;;;5.51;86.45;98703.50;103294;1102;79003;-74
2021/01/23 09:10:14;;;;;;;24.27;18.23;;;;;;;5.52;86.87;98694.45;103319;1102;64766;-61
2021/01/23 09:12:19;;;;;;;24.17;17.40;;;;;;;5.55;86.74;98697.54;103292;1103;83413;-61
2021/01/23 09:14:26;;;;;;;25.37;18.67;;;;;;;5.59;86.83;98706.02;103286;1102;72353;-64
2021/01/23 09:16:35;;;;;;;27.43;18.10;;;;;;;5.62;86.72;98701.09;103264;1102;86263;-76
2021/01/23 09:18:41;;;;;;;21.63;17.83;;;;;;;5.64;86.30;98698.20;103274;1102;79064;-75
2021/01/23 09:20:47;;;;;;;24.00;16.97;;;;;;;5.67;86.32;98690.60;103270;1102;64773;-76
2021/01/23 09:22:53;;;;;;;25.50;17.17;;;;;;;5.69;86.25;98685.03;103296;1102;83106;-76
2021/01/23 09:24:59;;;;;;;23.53;17.63;;;;;;;5.77;86.42;98680.33;103315;1102;71815;-62
2021/01/23 09:27:09;;;;;;;21.60;16.97;;;;;;;5.83;86.15;98673.34;103325;1102;84276;-62
2021/01/23 09:29:14;;;;;;;25.80;18.83;;;;;;;5.87;86.17;98677.31;103306;1103;78511;-62
2021/01/23 09:31:20;;;;;;;24.03;18.00;;;;;;;5.93;86.17;98681.87;103242;1102;64908;-63
2021/01/23 09:33:26;;;;;;;21.10;16.50;;;;;;;5.96;85.88;98686.80;103285;1102;84066;-62
2021/01/23 09:35:35;;;;;;;25.03;17.20;;;;;;;6.03;85.85;98687.67;103334;1102;72055;-62
2021/01/23 09:37:44;;;;;;;22.53;17.20;;;;;;;6.14;85.77;98681.72;103271;1102;85510;-63
2021/01/23 09:39:50;;;;;;;22.70;17.67;;;;;;;6.21;85.90;98670.98;103265;1102;77584;-75
2021/01/23 09:41:56;;;;;;;25.30;17.70;;;;;;;6.24;85.60;98662.54;103305;1102;64801;-74
2021/01/23 09:44:01;;;;;;;23.37;17.50;;;;;;;6.34;85.64;98671.86;103284;1102;84216;-74
2021/01/23 09:46:07;;;;;;;21.50;17.13;;;;;;;6.45;85.28;98665.06;103336;1102;73527;-62
2021/01/23 09:48:15;;;;;;;23.23;17.13;;;;;;;6.45;85.13;98654.33;103274;1102;84237;-63